sensor_id;sensor_type;location;lat;lon;timestamp;P1;durP1;ratioP1;P2;durP2;ratioP2
7929;SDS011;4010;42.698;23.124;2022-07-23T00:00:16;6.70;;;5.97;;
7929;SDS011;4010;42.698;23.124;2022-07-23T00:02:43;6.93;;;5.50;;
7929;SDS011;4010;42.698;23.124;2022-07-23T00:05:10;6.00;;;5.03;;
7929;SDS011;4010;42.698;23.124;2022-07-23T00:07:37;6.50;;;5.87;;
7929;SDS011;4010;42.698;23.124;2022-07-23T00:10:05;9.57;;;5.50;;
7929;SDS011;4010;42.698;23.124;2022-07-23T00:12:32;6.93;;;5.80;;
7929;SDS011;4010;42.698;23.124;2022-07-23T00:14:59;6.83;;;5.60;;
7929;SDS011;4010;42.698;23.124;2022-07-23T00:17:27;7.60;;;5.80;;
7929;SDS011;4010;42.698;23.124;2022-07-23T00:19:54;8.63;;;6.00;;
7929;SDS011;4010;42.698;23.124;2022-07-23T00:22:20;10.07;;;5.37;;
7929;SDS011;4010;42.698;23.124;2022-07-23T00:24:47;7.03;;;6.13;;
7929;SDS011;4010;42.698;23.124;2022-07-23T00:27:14;6.40;;;5.63;;
7929;SDS011;4010;42.698;23.124;2022-07-23T00:29:41;7.33;;;6.33;;
7929;SDS011;4010;42.698;23.124;2022-07-23T00:32:08;6.13;;;5.27;;
7929;SDS011;4010;42.698;23.124;2022-07-23T00:34:36;6.60;;;5.90;;
7929;SDS011;4010;42.698;23.124;2022-07-23T00:37:02;6.00;;;5.43;;
7929;SDS011;4010;42.698;23.124;2022-07-23T00:39:29;6.60;;;5.90;;
7929;SDS011;4010;42.698;23.124;2022-07-23T00:41:56;7.67;;;6.00;;
7929;SDS011;4010;42.698;23.124;2022-07-23T00:44:23;7.03;;;6.03;;
7929;SDS011;4010;42.698;23.124;2022-07-23T00:46:52;6.70;;;5.50;;
7929;SDS011;4010;42.698;23.124;2022-07-23T00:49:20;10.87;;;6.30;;
7929;SDS011;4010;42.698;23.124;2022-07-23T00:51:49;6.37;;;5.70;;
7929;SDS011;4010;42.698;23.124;2022-07-23T00:54:16;6.80;;;6.10;;
7929;SDS011;4010;42.698;23.124;2022-07-23T00:56:44;6.90;;;6.00;;
7929;SDS011;4010;42.698;23.124;2022-07-23T00:59:12;6.63;;;6.03;;
7929;SDS011;4010;42.698;23.124;2022-07-23T01:01:39;6.00;;;5.50;;
7929;SDS011;4010;42.698;23.124;2022-07-23T01:04:06;6.37;;;5.63;;
7929;SDS011;4010;42.698;23.124;2022-07-23T01:06:34;8.57;;;5.87;;
7929;SDS011;4010;42.698;23.124;2022-07-23T01:09:04;7.17;;;5.83;;
7929;SDS011;4010;42.698;23.124;2022-07-23T01:11:33;8.00;;;5.27;;
7929;SDS011;4010;42.698;23.124;2022-07-23T01:14:07;6.33;;;5.73;;
7929;SDS011;4010;42.698;23.124;2022-07-23T01:16:44;8.17;;;5.83;;
7929;SDS011;4010;42.698;23.124;2022-07-23T01:19:12;8.27;;;5.97;;
7929;SDS011;4010;42.698;23.124;2022-07-23T01:21:40;6.70;;;5.57;;
7929;SDS011;4010;42.698;23.124;2022-07-23T01:24:10;6.73;;;5.80;;
7929;SDS011;4010;42.698;23.124;2022-07-23T01:26:38;7.70;;;5.97;;
7929;SDS011;4010;42.698;23.124;2022-07-23T01:29:06;5.97;;;5.37;;
7929;SDS011;4010;42.698;23.124;2022-07-23T01:31:33;6.27;;;5.63;;
7929;SDS011;4010;42.698;23.124;2022-07-23T01:34:00;7.37;;;6.43;;
7929;SDS011;4010;42.698;23.124;2022-07-23T01:36:27;6.87;;;5.80;;
7929;SDS011;4010;42.698;23.124;2022-07-23T01:38:53;7.30;;;6.13;;
7929;SDS011;4010;42.698;23.124;2022-07-23T01:41:21;6.87;;;6.10;;
7929;SDS011;4010;42.698;23.124;2022-07-23T01:43:48;7.97;;;5.87;;
7929;SDS011;4010;42.698;23.124;2022-07-23T01:46:16;6.67;;;6.07;;
7929;SDS011;4010;42.698;23.124;2022-07-23T01:48:43;11.47;;;6.33;;
7929;SDS011;4010;42.698;23.124;2022-07-23T01:51:10;6.20;;;5.70;;
7929;SDS011;4010;42.698;23.124;2022-07-23T01:53:36;7.03;;;5.70;;
7929;SDS011;4010;42.698;23.124;2022-07-23T01:56:03;7.77;;;6.07;;
7929;SDS011;4010;42.698;23.124;2022-07-23T01:58:32;6.80;;;5.77;;
7929;SDS011;4010;42.698;23.124;2022-07-23T02:00:59;7.33;;;6.13;;
7929;SDS011;4010;42.698;23.124;2022-07-23T02:03:26;6.67;;;6.07;;
7929;SDS011;4010;42.698;23.124;2022-07-23T02:05:54;10.40;;;6.27;;
7929;SDS011;4010;42.698;23.124;2022-07-23T02:08:20;6.53;;;5.90;;
7929;SDS011;4010;42.698;23.124;2022-07-23T02:10:47;6.57;;;5.87;;
7929;SDS011;4010;42.698;23.124;2022-07-23T02:13:16;8.67;;;5.77;;
7929;SDS011;4010;42.698;23.124;2022-07-23T02:15:44;7.87;;;5.87;;
7929;SDS011;4010;42.698;23.124;2022-07-23T02:18:11;7.93;;;6.00;;
7929;SDS011;4010;42.698;23.124;2022-07-23T02:20:38;7.23;;;6.13;;
7929;SDS011;4010;42.698;23.124;2022-07-23T02:23:05;7.97;;;6.17;;
7929;SDS011;4010;42.698;23.124;2022-07-23T02:25:32;7.60;;;6.50;;
7929;SDS011;4010;42.698;23.124;2022-07-23T02:27:59;7.53;;;6.30;;
7929;SDS011;4010;42.698;23.124;2022-07-23T02:30:27;7.30;;;6.23;;
7929;SDS011;4010;42.698;23.124;2022-07-23T02:32:55;7.70;;;6.67;;
7929;SDS011;4010;42.698;23.124;2022-07-23T02:35:22;7.53;;;5.83;;
7929;SDS011;4010;42.698;23.124;2022-07-23T02:37:49;7.97;;;6.47;;
7929;SDS011;4010;42.698;23.124;2022-07-23T02:40:15;7.53;;;6.00;;
7929;SDS011;4010;42.698;23.124;2022-07-23T02:42:42;8.90;;;6.33;;
7929;SDS011;4010;42.698;23.124;2022-07-23T02:45:09;8.93;;;6.67;;
7929;SDS011;4010;42.698;23.124;2022-07-23T02:47:36;6.67;;;5.97;;
7929;SDS011;4010;42.698;23.124;2022-07-23T02:50:05;7.57;;;6.33;;
7929;SDS011;4010;42.698;23.124;2022-07-23T02:52:32;8.20;;;6.50;;
7929;SDS011;4010;42.698;23.124;2022-07-23T02:54:59;9.80;;;6.53;;
7929;SDS011;4010;42.698;23.124;2022-07-23T02:57:26;6.57;;;5.57;;
7929;SDS011;4010;42.698;23.124;2022-07-23T02:59:52;7.93;;;6.00;;
7929;SDS011;4010;42.698;23.124;2022-07-23T03:02:19;8.80;;;7.00;;
7929;SDS011;4010;42.698;23.124;2022-07-23T03:04:46;11.53;;;5.90;;
7929;SDS011;4010;42.698;23.124;2022-07-23T03:07:15;7.07;;;6.33;;
7929;SDS011;4010;42.698;23.124;2022-07-23T03:09:42;7.50;;;6.80;;
7929;SDS011;4010;42.698;23.124;2022-07-23T03:12:09;7.33;;;6.10;;
7929;SDS011;4010;42.698;23.124;2022-07-23T03:14:35;6.63;;;6.03;;
7929;SDS011;4010;42.698;23.124;2022-07-23T03:17:02;7.57;;;6.00;;
7929;SDS011;4010;42.698;23.124;2022-07-23T03:19:29;10.47;;;6.80;;
7929;SDS011;4010;42.698;23.124;2022-07-23T03:21:56;6.73;;;6.03;;
7929;SDS011;4010;42.698;23.124;2022-07-23T03:24:24;7.93;;;6.53;;
7929;SDS011;4010;42.698;23.124;2022-07-23T03:29:41;10.67;;;6.93;;
7929;SDS011;4010;42.698;23.124;2022-07-23T03:32:08;11.50;;;6.03;;
7929;SDS011;4010;42.698;23.124;2022-07-23T03:34:35;6.40;;;5.80;;
7929;SDS011;4010;42.698;23.124;2022-07-23T03:37:02;10.00;;;6.47;;
7929;SDS011;4010;42.698;23.124;2022-07-23T03:39:30;8.97;;;6.03;;
7929;SDS011;4010;42.698;23.124;2022-07-23T03:41:57;6.83;;;6.03;;
7929;SDS011;4010;42.698;23.124;2022-07-23T03:44:24;5.90;;;4.53;;
7929;SDS011;4010;42.698;23.124;2022-07-23T03:46:50;9.67;;;5.30;;
7929;SDS011;4010;42.698;23.124;2022-07-23T03:49:17;5.87;;;5.20;;
7929;SDS011;4010;42.698;23.124;2022-07-23T03:51:44;5.57;;;4.90;;
7929;SDS011;4010;42.698;23.124;2022-07-23T03:54:11;5.17;;;4.67;;
7929;SDS011;4010;42.698;23.124;2022-07-23T03:56:39;8.00;;;5.20;;
7929;SDS011;4010;42.698;23.124;2022-07-23T03:59:05;7.87;;;5.10;;
7929;SDS011;4010;42.698;23.124;2022-07-23T04:01:32;7.33;;;5.40;;
7929;SDS011;4010;42.698;23.124;2022-07-23T04:03:59;5.13;;;4.70;;
7929;SDS011;4010;42.698;23.124;2022-07-23T04:06:26;6.00;;;5.40;;
7929;SDS011;4010;42.698;23.124;2022-07-23T04:08:52;5.57;;;4.83;;
7929;SDS011;4010;42.698;23.124;2022-07-23T04:11:19;8.87;;;6.07;;
7929;SDS011;4010;42.698;23.124;2022-07-23T04:13:47;6.07;;;4.90;;
7929;SDS011;4010;42.698;23.124;2022-07-23T04:16:14;5.37;;;4.87;;
7929;SDS011;4010;42.698;23.124;2022-07-23T04:18:41;6.93;;;4.73;;
7929;SDS011;4010;42.698;23.124;2022-07-23T04:21:07;6.73;;;4.80;;
7929;SDS011;4010;42.698;23.124;2022-07-23T04:23:34;9.37;;;5.50;;
7929;SDS011;4010;42.698;23.124;2022-07-23T04:26:01;9.10;;;5.17;;
7929;SDS011;4010;42.698;23.124;2022-07-23T04:28:28;5.97;;;5.37;;
7929;SDS011;4010;42.698;23.124;2022-07-23T04:30:57;6.17;;;5.37;;
7929;SDS011;4010;42.698;23.124;2022-07-23T04:33:23;8.97;;;5.53;;
7929;SDS011;4010;42.698;23.124;2022-07-23T04:35:50;6.20;;;5.60;;
7929;SDS011;4010;42.698;23.124;2022-07-23T04:38:17;6.53;;;5.83;;
7929;SDS011;4010;42.698;23.124;2022-07-23T04:40:44;7.00;;;5.87;;
7929;SDS011;4010;42.698;23.124;2022-07-23T04:43:10;7.20;;;5.07;;
7929;SDS011;4010;42.698;23.124;2022-07-23T04:45:37;10.10;;;6.47;;
7929;SDS011;4010;42.698;23.124;2022-07-23T04:48:06;7.63;;;5.40;;
7929;SDS011;4010;42.698;23.124;2022-07-23T04:50:32;5.97;;;5.40;;
7929;SDS011;4010;42.698;23.124;2022-07-23T04:52:59;6.10;;;5.07;;
7929;SDS011;4010;42.698;23.124;2022-07-23T04:55:26;7.63;;;5.10;;
7929;SDS011;4010;42.698;23.124;2022-07-23T04:57:53;7.63;;;5.53;;
7929;SDS011;4010;42.698;23.124;2022-07-23T05:00:20;6.87;;;5.60;;
7929;SDS011;4010;42.698;23.124;2022-07-23T05:02:48;7.03;;;5.53;;
7929;SDS011;4010;42.698;23.124;2022-07-23T05:05:16;10.33;;;5.87;;
7929;SDS011;4010;42.698;23.124;2022-07-23T05:07:42;12.40;;;5.90;;
7929;SDS011;4010;42.698;23.124;2022-07-23T05:10:09;8.33;;;6.03;;
7929;SDS011;4010;42.698;23.124;2022-07-23T05:12:36;7.23;;;6.37;;
7929;SDS011;4010;42.698;23.124;2022-07-23T05:15:03;7.77;;;6.77;;
7929;SDS011;4010;42.698;23.124;2022-07-23T05:17:30;7.47;;;6.40;;
7929;SDS011;4010;42.698;23.124;2022-07-23T05:19:57;9.90;;;6.83;;
7929;SDS011;4010;42.698;23.124;2022-07-23T05:22:25;7.63;;;6.37;;
7929;SDS011;4010;42.698;23.124;2022-07-23T05:24:52;7.17;;;6.47;;
7929;SDS011;4010;42.698;23.124;2022-07-23T05:27:18;7.07;;;6.37;;
7929;SDS011;4010;42.698;23.124;2022-07-23T05:29:45;7.80;;;6.77;;
7929;SDS011;4010;42.698;23.124;2022-07-23T05:32:12;8.30;;;7.33;;
7929;SDS011;4010;42.698;23.124;2022-07-23T05:34:39;7.43;;;6.27;;
7929;SDS011;4010;42.698;23.124;2022-07-23T05:37:05;10.17;;;7.17;;
7929;SDS011;4010;42.698;23.124;2022-07-23T05:39:33;8.00;;;6.43;;
7929;SDS011;4010;42.698;23.124;2022-07-23T05:42:00;8.70;;;6.57;;
7929;SDS011;4010;42.698;23.124;2022-07-23T05:44:27;7.38;;;6.00;;
7929;SDS011;4010;42.698;23.124;2022-07-23T05:46:53;7.80;;;7.10;;
7929;SDS011;4010;42.698;23.124;2022-07-23T05:49:20;10.18;;;6.97;;
7929;SDS011;4010;42.698;23.124;2022-07-23T05:51:47;8.65;;;6.95;;
7929;SDS011;4010;42.698;23.124;2022-07-23T05:54:14;8.88;;;6.78;;
7929;SDS011;4010;42.698;23.124;2022-07-23T05:56:42;7.15;;;6.47;;
7929;SDS011;4010;42.698;23.124;2022-07-23T05:59:09;7.32;;;6.55;;
7929;SDS011;4010;42.698;23.124;2022-07-23T06:01:37;6.87;;;6.27;;
7929;SDS011;4010;42.698;23.124;2022-07-23T06:04:03;8.17;;;7.27;;
7929;SDS011;4010;42.698;23.124;2022-07-23T06:06:30;8.60;;;6.50;;
7929;SDS011;4010;42.698;23.124;2022-07-23T06:08:57;7.77;;;6.97;;
7929;SDS011;4010;42.698;23.124;2022-07-23T06:11:24;7.43;;;6.73;;
7929;SDS011;4010;42.698;23.124;2022-07-23T06:13:52;8.57;;;7.10;;
7929;SDS011;4010;42.698;23.124;2022-07-23T06:16:20;7.90;;;7.10;;
7929;SDS011;4010;42.698;23.124;2022-07-23T06:18:46;8.57;;;7.60;;
7929;SDS011;4010;42.698;23.124;2022-07-23T06:21:13;7.57;;;6.73;;
7929;SDS011;4010;42.698;23.124;2022-07-23T06:23:40;10.20;;;6.93;;
7929;SDS011;4010;42.698;23.124;2022-07-23T06:26:06;8.13;;;7.33;;
7929;SDS011;4010;42.698;23.124;2022-07-23T06:28:33;9.70;;;7.23;;
7929;SDS011;4010;42.698;23.124;2022-07-23T06:31:01;8.83;;;7.93;;
7929;SDS011;4010;42.698;23.124;2022-07-23T06:33:28;8.90;;;8.10;;
7929;SDS011;4010;42.698;23.124;2022-07-23T06:35:55;13.67;;;8.13;;
7929;SDS011;4010;42.698;23.124;2022-07-23T06:38:22;8.23;;;7.00;;
7929;SDS011;4010;42.698;23.124;2022-07-23T06:40:48;8.77;;;7.17;;
7929;SDS011;4010;42.698;23.124;2022-07-23T06:43:15;9.13;;;7.50;;
7929;SDS011;4010;42.698;23.124;2022-07-23T06:45:42;9.68;;;7.20;;
7929;SDS011;4010;42.698;23.124;2022-07-23T06:48:10;8.20;;;7.47;;
7929;SDS011;4010;42.698;23.124;2022-07-23T06:50:40;8.37;;;6.97;;
7929;SDS011;4010;42.698;23.124;2022-07-23T06:53:06;12.60;;;7.87;;
7929;SDS011;4010;42.698;23.124;2022-07-23T06:55:33;10.47;;;7.57;;
7929;SDS011;4010;42.698;23.124;2022-07-23T06:58:03;9.03;;;7.83;;
7929;SDS011;4010;42.698;23.124;2022-07-23T07:00:30;8.27;;;7.57;;
7929;SDS011;4010;42.698;23.124;2022-07-23T07:02:57;7.60;;;6.90;;
7929;SDS011;4010;42.698;23.124;2022-07-23T07:05:26;11.27;;;7.63;;
7929;SDS011;4010;42.698;23.124;2022-07-23T07:07:53;8.23;;;7.40;;
7929;SDS011;4010;42.698;23.124;2022-07-23T07:10:20;9.07;;;7.77;;
7929;SDS011;4010;42.698;23.124;2022-07-23T07:12:47;11.57;;;7.70;;
7929;SDS011;4010;42.698;23.124;2022-07-23T07:15:14;8.17;;;7.37;;
7929;SDS011;4010;42.698;23.124;2022-07-23T07:17:41;9.00;;;8.13;;
7929;SDS011;4010;42.698;23.124;2022-07-23T07:20:09;11.20;;;8.23;;
7929;SDS011;4010;42.698;23.124;2022-07-23T07:22:37;10.03;;;7.47;;
7929;SDS011;4010;42.698;23.124;2022-07-23T07:25:05;8.40;;;7.60;;
7929;SDS011;4010;42.698;23.124;2022-07-23T07:27:38;9.67;;;6.90;;
7929;SDS011;4010;42.698;23.124;2022-07-23T07:33:08;9.17;;;7.93;;
7929;SDS011;4010;42.698;23.124;2022-07-23T07:35:34;12.73;;;7.80;;
7929;SDS011;4010;42.698;23.124;2022-07-23T07:38:02;9.63;;;7.33;;
7929;SDS011;4010;42.698;23.124;2022-07-23T07:40:29;8.37;;;7.17;;
7929;SDS011;4010;42.698;23.124;2022-07-23T07:42:56;9.20;;;7.50;;
7929;SDS011;4010;42.698;23.124;2022-07-23T07:45:23;9.70;;;6.90;;
7929;SDS011;4010;42.698;23.124;2022-07-23T07:47:50;9.37;;;7.90;;
7929;SDS011;4010;42.698;23.124;2022-07-23T07:50:18;11.33;;;7.70;;
7929;SDS011;4010;42.698;23.124;2022-07-23T07:52:45;10.27;;;7.50;;
7929;SDS011;4010;42.698;23.124;2022-07-23T07:55:14;10.27;;;8.10;;
7929;SDS011;4010;42.698;23.124;2022-07-23T07:57:41;9.40;;;7.87;;
7929;SDS011;4010;42.698;23.124;2022-07-23T08:00:08;13.13;;;7.73;;
7929;SDS011;4010;42.698;23.124;2022-07-23T08:02:40;13.43;;;6.93;;
7929;SDS011;4010;42.698;23.124;2022-07-23T08:05:08;8.43;;;7.20;;
7929;SDS011;4010;42.698;23.124;2022-07-23T08:07:35;8.43;;;7.63;;
7929;SDS011;4010;42.698;23.124;2022-07-23T08:10:04;9.77;;;7.50;;
7929;SDS011;4010;42.698;23.124;2022-07-23T08:12:38;7.80;;;7.03;;
7929;SDS011;4010;42.698;23.124;2022-07-23T08:15:07;9.57;;;7.57;;
7929;SDS011;4010;42.698;23.124;2022-07-23T08:17:35;8.67;;;6.90;;
7929;SDS011;4010;42.698;23.124;2022-07-23T08:20:02;8.17;;;7.40;;
7929;SDS011;4010;42.698;23.124;2022-07-23T08:22:46;8.90;;;7.93;;
7929;SDS011;4010;42.698;23.124;2022-07-23T08:25:15;9.37;;;7.83;;
7929;SDS011;4010;42.698;23.124;2022-07-23T08:27:43;9.70;;;8.17;;
7929;SDS011;4010;42.698;23.124;2022-07-23T08:30:10;8.73;;;7.77;;
7929;SDS011;4010;42.698;23.124;2022-07-23T08:32:50;12.20;;;7.73;;
7929;SDS011;4010;42.698;23.124;2022-07-23T08:35:21;11.13;;;7.47;;
7929;SDS011;4010;42.698;23.124;2022-07-23T08:37:50;9.63;;;8.07;;
7929;SDS011;4010;42.698;23.124;2022-07-23T08:40:17;9.60;;;7.03;;
7929;SDS011;4010;42.698;23.124;2022-07-23T08:42:46;9.37;;;7.30;;
7929;SDS011;4010;42.698;23.124;2022-07-23T08:45:15;12.73;;;7.80;;
7929;SDS011;4010;42.698;23.124;2022-07-23T08:47:44;11.43;;;8.20;;
7929;SDS011;4010;42.698;23.124;2022-07-23T08:50:11;13.87;;;7.80;;
7929;SDS011;4010;42.698;23.124;2022-07-23T08:52:38;11.17;;;7.63;;
7929;SDS011;4010;42.698;23.124;2022-07-23T08:55:06;9.07;;;7.23;;
7929;SDS011;4010;42.698;23.124;2022-07-23T08:57:33;10.50;;;7.70;;
7929;SDS011;4010;42.698;23.124;2022-07-23T09:00:02;7.63;;;6.93;;
7929;SDS011;4010;42.698;23.124;2022-07-23T09:02:30;8.10;;;7.30;;
7929;SDS011;4010;42.698;23.124;2022-07-23T09:04:56;9.73;;;7.00;;
7929;SDS011;4010;42.698;23.124;2022-07-23T09:07:23;12.50;;;8.17;;
7929;SDS011;4010;42.698;23.124;2022-07-23T09:09:57;8.00;;;7.13;;
7929;SDS011;4010;42.698;23.124;2022-07-23T09:12:32;8.93;;;7.80;;
7929;SDS011;4010;42.698;23.124;2022-07-23T09:15:04;12.93;;;7.43;;
7929;SDS011;4010;42.698;23.124;2022-07-23T09:17:39;7.97;;;7.17;;
7929;SDS011;4010;42.698;23.124;2022-07-23T09:20:07;9.17;;;7.10;;
7929;SDS011;4010;42.698;23.124;2022-07-23T09:22:35;9.13;;;7.53;;
7929;SDS011;4010;42.698;23.124;2022-07-23T09:25:02;8.13;;;6.67;;
7929;SDS011;4010;42.698;23.124;2022-07-23T09:27:48;10.07;;;7.23;;
7929;SDS011;4010;42.698;23.124;2022-07-23T09:30:20;6.80;;;5.93;;
7929;SDS011;4010;42.698;23.124;2022-07-23T09:35:43;15.80;;;7.07;;
7929;SDS011;4010;42.698;23.124;2022-07-23T09:38:11;8.80;;;6.90;;
7929;SDS011;4010;42.698;23.124;2022-07-23T09:40:37;9.27;;;7.33;;
7929;SDS011;4010;42.698;23.124;2022-07-23T09:43:04;8.80;;;6.77;;
7929;SDS011;4010;42.698;23.124;2022-07-23T09:45:32;9.03;;;6.73;;
7929;SDS011;4010;42.698;23.124;2022-07-23T09:48:09;10.60;;;6.63;;
7929;SDS011;4010;42.698;23.124;2022-07-23T09:50:37;7.07;;;6.00;;
7929;SDS011;4010;42.698;23.124;2022-07-23T09:53:04;13.83;;;5.87;;
7929;SDS011;4010;42.698;23.124;2022-07-23T09:55:31;8.50;;;6.17;;
7929;SDS011;4010;42.698;23.124;2022-07-23T09:58:01;7.90;;;5.73;;
7929;SDS011;4010;42.698;23.124;2022-07-23T10:00:29;9.67;;;6.13;;
7929;SDS011;4010;42.698;23.124;2022-07-23T10:02:58;11.43;;;6.30;;
7929;SDS011;4010;42.698;23.124;2022-07-23T10:05:25;15.13;;;5.70;;
7929;SDS011;4010;42.698;23.124;2022-07-23T10:07:52;7.33;;;5.63;;
7929;SDS011;4010;42.698;23.124;2022-07-23T10:10:20;10.50;;;6.20;;
7929;SDS011;4010;42.698;23.124;2022-07-23T10:12:49;9.93;;;5.80;;
7929;SDS011;4010;42.698;23.124;2022-07-23T10:15:33;8.60;;;5.53;;
7929;SDS011;4010;42.698;23.124;2022-07-23T10:18:01;9.87;;;6.50;;
7929;SDS011;4010;42.698;23.124;2022-07-23T10:20:28;9.37;;;6.00;;
7929;SDS011;4010;42.698;23.124;2022-07-23T10:22:56;8.97;;;5.97;;
7929;SDS011;4010;42.698;23.124;2022-07-23T10:25:32;14.30;;;6.57;;
7929;SDS011;4010;42.698;23.124;2022-07-23T10:28:08;9.60;;;6.23;;
7929;SDS011;4010;42.698;23.124;2022-07-23T10:30:50;11.40;;;6.70;;
7929;SDS011;4010;42.698;23.124;2022-07-23T10:33:29;9.40;;;6.47;;
7929;SDS011;4010;42.698;23.124;2022-07-23T10:38:51;9.47;;;5.70;;
7929;SDS011;4010;42.698;23.124;2022-07-23T10:41:32;8.97;;;6.33;;
7929;SDS011;4010;42.698;23.124;2022-07-23T10:44:07;11.90;;;6.33;;
7929;SDS011;4010;42.698;23.124;2022-07-23T10:46:34;8.23;;;5.90;;
7929;SDS011;4010;42.698;23.124;2022-07-23T10:49:22;10.57;;;5.67;;
7929;SDS011;4010;42.698;23.124;2022-07-23T10:54:49;7.93;;;5.97;;
7929;SDS011;4010;42.698;23.124;2022-07-23T10:57:17;9.20;;;5.73;;
7929;SDS011;4010;42.698;23.124;2022-07-23T11:02:41;9.70;;;6.23;;
7929;SDS011;4010;42.698;23.124;2022-07-23T11:05:12;6.77;;;5.87;;
7929;SDS011;4010;42.698;23.124;2022-07-23T11:10:51;8.70;;;6.17;;
7929;SDS011;4010;42.698;23.124;2022-07-23T11:13:29;11.30;;;5.90;;
7929;SDS011;4010;42.698;23.124;2022-07-23T11:16:17;9.00;;;6.07;;
7929;SDS011;4010;42.698;23.124;2022-07-23T11:18:54;12.23;;;5.60;;
7929;SDS011;4010;42.698;23.124;2022-07-23T11:21:46;8.57;;;5.67;;
7929;SDS011;4010;42.698;23.124;2022-07-23T11:24:23;11.03;;;6.20;;
7929;SDS011;4010;42.698;23.124;2022-07-23T11:26:54;11.07;;;5.80;;
7929;SDS011;4010;42.698;23.124;2022-07-23T11:29:38;11.40;;;6.23;;
7929;SDS011;4010;42.698;23.124;2022-07-23T11:32:17;7.00;;;5.77;;
7929;SDS011;4010;42.698;23.124;2022-07-23T11:35:20;8.37;;;5.80;;
7929;SDS011;4010;42.698;23.124;2022-07-23T11:37:54;8.07;;;5.87;;
7929;SDS011;4010;42.698;23.124;2022-07-23T11:40:28;9.27;;;5.80;;
7929;SDS011;4010;42.698;23.124;2022-07-23T11:42:56;8.60;;;6.00;;
7929;SDS011;4010;42.698;23.124;2022-07-23T11:45:26;9.43;;;5.83;;
7929;SDS011;4010;42.698;23.124;2022-07-23T11:47:57;10.53;;;6.03;;
7929;SDS011;4010;42.698;23.124;2022-07-23T11:50:24;11.00;;;6.90;;
7929;SDS011;4010;42.698;23.124;2022-07-23T11:52:52;11.10;;;6.07;;
7929;SDS011;4010;42.698;23.124;2022-07-23T11:55:20;9.10;;;6.40;;
7929;SDS011;4010;42.698;23.124;2022-07-23T11:57:48;8.47;;;5.50;;
7929;SDS011;4010;42.698;23.124;2022-07-23T12:00:18;15.07;;;6.57;;
7929;SDS011;4010;42.698;23.124;2022-07-23T12:02:48;14.53;;;6.13;;
7929;SDS011;4010;42.698;23.124;2022-07-23T12:05:17;11.37;;;5.60;;
7929;SDS011;4010;42.698;23.124;2022-07-23T12:07:45;11.27;;;5.57;;
7929;SDS011;4010;42.698;23.124;2022-07-23T12:10:17;8.53;;;5.33;;
7929;SDS011;4010;42.698;23.124;2022-07-23T12:12:46;10.53;;;5.90;;
7929;SDS011;4010;42.698;23.124;2022-07-23T12:15:15;9.07;;;5.43;;
7929;SDS011;4010;42.698;23.124;2022-07-23T12:17:44;11.00;;;6.47;;
7929;SDS011;4010;42.698;23.124;2022-07-23T12:20:12;7.40;;;5.07;;
7929;SDS011;4010;42.698;23.124;2022-07-23T12:22:42;9.30;;;5.57;;
7929;SDS011;4010;42.698;23.124;2022-07-23T12:25:10;10.00;;;5.53;;
7929;SDS011;4010;42.698;23.124;2022-07-23T12:27:40;8.70;;;5.90;;
7929;SDS011;4010;42.698;23.124;2022-07-23T12:30:23;7.87;;;5.77;;
7929;SDS011;4010;42.698;23.124;2022-07-23T12:32:52;10.27;;;6.30;;
7929;SDS011;4010;42.698;23.124;2022-07-23T12:35:20;12.90;;;5.50;;
7929;SDS011;4010;42.698;23.124;2022-07-23T12:37:48;9.97;;;5.77;;
7929;SDS011;4010;42.698;23.124;2022-07-23T12:40:27;10.03;;;5.50;;
7929;SDS011;4010;42.698;23.124;2022-07-23T12:42:56;12.47;;;6.10;;
7929;SDS011;4010;42.698;23.124;2022-07-23T12:45:25;10.60;;;5.73;;
7929;SDS011;4010;42.698;23.124;2022-07-23T12:47:58;11.70;;;5.90;;
7929;SDS011;4010;42.698;23.124;2022-07-23T12:50:42;6.63;;;5.53;;
7929;SDS011;4010;42.698;23.124;2022-07-23T12:53:11;8.33;;;5.73;;
7929;SDS011;4010;42.698;23.124;2022-07-23T12:55:41;9.07;;;5.63;;
7929;SDS011;4010;42.698;23.124;2022-07-23T12:58:11;11.37;;;6.03;;
7929;SDS011;4010;42.698;23.124;2022-07-23T13:00:55;8.20;;;5.70;;
7929;SDS011;4010;42.698;23.124;2022-07-23T13:03:24;10.70;;;5.77;;
7929;SDS011;4010;42.698;23.124;2022-07-23T13:05:51;10.60;;;5.80;;
7929;SDS011;4010;42.698;23.124;2022-07-23T13:08:18;9.20;;;5.13;;
7929;SDS011;4010;42.698;23.124;2022-07-23T13:10:45;9.10;;;6.03;;
7929;SDS011;4010;42.698;23.124;2022-07-23T13:13:15;9.50;;;5.90;;
7929;SDS011;4010;42.698;23.124;2022-07-23T13:15:42;10.80;;;5.40;;
7929;SDS011;4010;42.698;23.124;2022-07-23T13:18:09;11.27;;;5.93;;
7929;SDS011;4010;42.698;23.124;2022-07-23T13:20:36;12.20;;;5.47;;
7929;SDS011;4010;42.698;23.124;2022-07-23T13:23:04;11.50;;;6.20;;
7929;SDS011;4010;42.698;23.124;2022-07-23T13:25:31;8.73;;;5.13;;
7929;SDS011;4010;42.698;23.124;2022-07-23T13:27:58;8.53;;;5.30;;
7929;SDS011;4010;42.698;23.124;2022-07-23T13:30:26;8.43;;;5.87;;
7929;SDS011;4010;42.698;23.124;2022-07-23T13:32:53;11.73;;;5.97;;
7929;SDS011;4010;42.698;23.124;2022-07-23T13:35:20;9.93;;;5.80;;
7929;SDS011;4010;42.698;23.124;2022-07-23T13:37:47;10.80;;;5.20;;
7929;SDS011;4010;42.698;23.124;2022-07-23T13:40:14;9.73;;;5.67;;
7929;SDS011;4010;42.698;23.124;2022-07-23T13:42:41;8.47;;;5.13;;
7929;SDS011;4010;42.698;23.124;2022-07-23T13:45:08;9.37;;;5.67;;
7929;SDS011;4010;42.698;23.124;2022-07-23T13:47:36;6.30;;;5.17;;
7929;SDS011;4010;42.698;23.124;2022-07-23T13:50:04;12.30;;;5.70;;
7929;SDS011;4010;42.698;23.124;2022-07-23T13:52:31;8.80;;;5.53;;
7929;SDS011;4010;42.698;23.124;2022-07-23T13:54:59;8.67;;;5.33;;
7929;SDS011;4010;42.698;23.124;2022-07-23T13:57:26;11.90;;;5.50;;
7929;SDS011;4010;42.698;23.124;2022-07-23T13:59:53;8.47;;;4.60;;
7929;SDS011;4010;42.698;23.124;2022-07-23T14:02:20;11.17;;;5.13;;
7929;SDS011;4010;42.698;23.124;2022-07-23T14:04:48;9.93;;;5.23;;
7929;SDS011;4010;42.698;23.124;2022-07-23T14:07:15;10.43;;;4.93;;
7929;SDS011;4010;42.698;23.124;2022-07-23T14:09:42;11.43;;;5.20;;
7929;SDS011;4010;42.698;23.124;2022-07-23T14:12:09;12.53;;;5.50;;
7929;SDS011;4010;42.698;23.124;2022-07-23T14:14:36;8.20;;;5.30;;
7929;SDS011;4010;42.698;23.124;2022-07-23T14:17:03;9.73;;;4.87;;
7929;SDS011;4010;42.698;23.124;2022-07-23T14:19:30;11.23;;;5.70;;
7929;SDS011;4010;42.698;23.124;2022-07-23T14:21:58;12.10;;;5.60;;
7929;SDS011;4010;42.698;23.124;2022-07-23T14:24:25;10.70;;;5.30;;
7929;SDS011;4010;42.698;23.124;2022-07-23T14:26:52;8.73;;;5.40;;
7929;SDS011;4010;42.698;23.124;2022-07-23T14:29:18;8.70;;;4.97;;
7929;SDS011;4010;42.698;23.124;2022-07-23T14:31:45;8.70;;;5.63;;
7929;SDS011;4010;42.698;23.124;2022-07-23T14:34:13;11.50;;;5.73;;
7929;SDS011;4010;42.698;23.124;2022-07-23T14:36:40;10.87;;;5.13;;
7929;SDS011;4010;42.698;23.124;2022-07-23T14:39:08;7.67;;;5.37;;
7929;SDS011;4010;42.698;23.124;2022-07-23T14:41:36;10.73;;;7.30;;
7929;SDS011;4010;42.698;23.124;2022-07-23T14:44:04;9.50;;;5.60;;
7929;SDS011;4010;42.698;23.124;2022-07-23T14:46:31;11.10;;;5.30;;
7929;SDS011;4010;42.698;23.124;2022-07-23T14:48:57;12.40;;;5.30;;
7929;SDS011;4010;42.698;23.124;2022-07-23T14:51:24;11.77;;;5.73;;
7929;SDS011;4010;42.698;23.124;2022-07-23T14:53:51;8.53;;;5.60;;
7929;SDS011;4010;42.698;23.124;2022-07-23T14:56:19;12.23;;;5.87;;
7929;SDS011;4010;42.698;23.124;2022-07-23T14:58:46;9.07;;;5.03;;
7929;SDS011;4010;42.698;23.124;2022-07-23T15:01:13;8.50;;;5.50;;
7929;SDS011;4010;42.698;23.124;2022-07-23T15:03:40;11.53;;;5.70;;
7929;SDS011;4010;42.698;23.124;2022-07-23T15:06:07;12.13;;;6.00;;
7929;SDS011;4010;42.698;23.124;2022-07-23T15:08:34;11.93;;;5.10;;
7929;SDS011;4010;42.698;23.124;2022-07-23T15:11:00;10.40;;;6.20;;
7929;SDS011;4010;42.698;23.124;2022-07-23T15:13:28;10.43;;;5.80;;
7929;SDS011;4010;42.698;23.124;2022-07-23T15:15:55;14.90;;;5.63;;
7929;SDS011;4010;42.698;23.124;2022-07-23T15:18:22;7.40;;;4.97;;
7929;SDS011;4010;42.698;23.124;2022-07-23T15:20:49;9.37;;;5.23;;
7929;SDS011;4010;42.698;23.124;2022-07-23T15:23:16;15.50;;;5.80;;
7929;SDS011;4010;42.698;23.124;2022-07-23T15:25:42;9.53;;;5.57;;